Wilson Maas — 8PSZ — position and weather

sailwx.info

Track history (hours):
 
Tides and Currents Weather Stations Pressure Air Temp Water Temp Dewpoint Dewpoint Depression Visibility Wind Speed Wind Dir Waves Ship Positions

Wilson Maas

Last reported at 2015-Mar-05 13:34 UTC. Time now 2015-Mar-05 14:35 UTC.
Position N 51°45' E 004°38'.

Length 78 m; draft 3.9 m.

Type: Cargo ship. MMSI: 314217000.

Date/timePositionNaut miles runAvg speedWind from/ knotsBaromVisibWave heightAir tempDewpointWater temp
2015-Mar-05 13:34N 51°45' E 004°38'3 0.5
2015-Mar-05 07:11N 51°42' E 004°35'0 0.0
2015-Mar-05 05:05N 51°42' E 004°35'0 0.0
2015-Mar-05 02:29N 51°42' E 004°35'0 0.0
2015-Mar-05 01:29N 51°42' E 004°35'4 4.5
2015-Mar-05 00:34N 51°45' E 004°38'6 6.4
2015-Mar-04 23:33N 51°50' E 004°30'7 7.0
2015-Mar-04 22:34N 51°52' E 004°20'6 6.5
2015-Mar-04 21:33N 51°56' E 004°12'8 7.8
2015-Mar-04 20:33N 51°60' E 004°00'10 8.5
2015-Mar-04 19:26N 52°04' E 003°46'48 9.2
2015-Mar-04 14:14N 52°52' E 003°59'77 7.7
2015-Mar-04 04:14N 54°02' E 004°50'  
2015-Feb-28 12:27N 63°39' E 009°47'6 7.0
2015-Feb-28 11:33N 63°33' E 009°52'6 6.5
2015-Feb-28 10:33N 63°29' E 010°03'8 8.4
2015-Feb-28 09:33N 63°27' E 010°21'1 1.2
2015-Feb-28 08:31N 63°27' E 010°24'0 0.0
2015-Feb-28 07:31N 63°27' E 010°24'0 0.0
2015-Feb-28 06:31N 63°27' E 010°24'0 0.0
2015-Feb-28 05:31N 63°27' E 010°24'0 0.0
2015-Feb-28 04:31N 63°27' E 010°24'0 0.0
2015-Feb-28 03:31N 63°27' E 010°24'0 0.0
2015-Feb-28 02:31N 63°27' E 010°24'0 0.0
2015-Feb-28 01:31N 63°27' E 010°24'0 0.0
2015-Feb-28 00:31N 63°27' E 010°24'0 0.0
2015-Feb-27 23:31N 63°27' E 010°24'0 0.0
2015-Feb-27 22:31N 63°27' E 010°24'0 0.0
2015-Feb-27 21:31N 63°27' E 010°24'0 0.0
2015-Feb-27 20:31N 63°27' E 010°24'0 0.0
2015-Feb-27 19:31N 63°27' E 010°24'0 0.0
2015-Feb-27 18:31N 63°27' E 010°24'0 0.0
2015-Feb-27 17:31N 63°27' E 010°24'0 0.0
2015-Feb-27 16:31N 63°27' E 010°24'4 4.1
2015-Feb-27 15:33N 63°28' E 010°15'9 9.2
2015-Feb-27 14:33N 63°23' E 009°59'4 4.2
2015-Feb-27 13:32N 63°19' E 009°53'0 0.0
2015-Feb-27 12:32N 63°19' E 009°53'0 0.0
2015-Feb-27 11:29N 63°19' E 009°53'0 0.0
2015-Feb-27 10:32N 63°19' E 009°53'0 0.0
2015-Feb-27 09:32N 63°19' E 009°53'0 0.0
2015-Feb-27 08:32N 63°19' E 009°53'0 0.0
2015-Feb-27 07:29N 63°19' E 009°53'0 0.0
2015-Feb-27 00:30N 63°19' E 009°53'5 5.8
2015-Feb-26 23:33N 63°24' E 009°59'10 9.9
2015-Feb-26 22:33N 63°33' E 009°51'7410.5
2015-Feb-26 15:28N 63°03' E 007°19'243 6.2
2015-Feb-25 00:33N 59°09' E 005°07'5 5.0
2015-Feb-24 23:34N 59°05' E 005°14'4 3.8
2015-Feb-24 22:33N 59°07' E 005°20'8 7.7
2015-Feb-24 21:33N 59°04' E 005°34'8 8.0
2015-Feb-24 20:33N 59°01' E 005°48'9 9.1
2015-Feb-24 19:34N 58°52' E 005°45'0 0.5
2015-Feb-24 18:31N 58°51' E 005°45'0 0.0
2015-Feb-24 17:31N 58°51' E 005°45'0 0.0
2015-Feb-24 16:31N 58°51' E 005°45'0 0.0
2015-Feb-24 15:31N 58°51' E 005°45'0 0.0
2015-Feb-24 14:33N 58°51' E 005°45'7 6.8
2015-Feb-24 13:33N 58°58' E 005°48'7 7.5
2015-Feb-24 12:33N 59°02' E 005°36'8 7.7
2015-Feb-24 11:33N 59°04' E 005°21'1010.2
2015-Feb-24 10:33N 58°54' E 005°22'50 9.9
2015-Feb-24 05:33N 58°05' E 005°33'  
Track history (hours):
 
Tides and Currents Weather Stations Pressure Air Temp Water Temp Dewpoint Dewpoint Depression Visibility Wind Speed Wind Dir Waves Ship Positions

Wilson Maas

Last reported at 2015-Mar-05 13:34 UTC. Time now 2015-Mar-05 14:35 UTC.
Position N 51°45' E 004°38'.

Length 78 m; draft 3.9 m.

Type: Cargo ship. MMSI: 314217000.

Date/timePositionNaut miles runAvg speedWind from/ knotsBaromVisibWave heightAir tempDewpointWater temp
2015-Mar-05 13:34N 51°45' E 004°38'3 0.5
2015-Mar-05 07:11N 51°42' E 004°35'0 0.0
2015-Mar-05 05:05N 51°42' E 004°35'0 0.0
2015-Mar-05 02:29N 51°42' E 004°35'0 0.0
2015-Mar-05 01:29N 51°42' E 004°35'4 4.5
2015-Mar-05 00:34N 51°45' E 004°38'6 6.4
2015-Mar-04 23:33N 51°50' E 004°30'7 7.0
2015-Mar-04 22:34N 51°52' E 004°20'6 6.5
2015-Mar-04 21:33N 51°56' E 004°12'8 7.8
2015-Mar-04 20:33N 51°60' E 004°00'10 8.5
2015-Mar-04 19:26N 52°04' E 003°46'48 9.2
2015-Mar-04 14:14N 52°52' E 003°59'77 7.7
2015-Mar-04 04:14N 54°02' E 004°50'  
2015-Feb-28 12:27N 63°39' E 009°47'6 7.0
2015-Feb-28 11:33N 63°33' E 009°52'6 6.5
2015-Feb-28 10:33N 63°29' E 010°03'8 8.4
2015-Feb-28 09:33N 63°27' E 010°21'1 1.2
2015-Feb-28 08:31N 63°27' E 010°24'0 0.0
2015-Feb-28 07:31N 63°27' E 010°24'0 0.0
2015-Feb-28 06:31N 63°27' E 010°24'0 0.0
2015-Feb-28 05:31N 63°27' E 010°24'0 0.0
2015-Feb-28 04:31N 63°27' E 010°24'0 0.0
2015-Feb-28 03:31N 63°27' E 010°24'0 0.0
2015-Feb-28 02:31N 63°27' E 010°24'0 0.0
2015-Feb-28 01:31N 63°27' E 010°24'0 0.0
2015-Feb-28 00:31N 63°27' E 010°24'0 0.0
2015-Feb-27 23:31N 63°27' E 010°24'0 0.0
2015-Feb-27 22:31N 63°27' E 010°24'0 0.0
2015-Feb-27 21:31N 63°27' E 010°24'0 0.0
2015-Feb-27 20:31N 63°27' E 010°24'0 0.0
2015-Feb-27 19:31N 63°27' E 010°24'0 0.0
2015-Feb-27 18:31N 63°27' E 010°24'0 0.0
2015-Feb-27 17:31N 63°27' E 010°24'0 0.0
2015-Feb-27 16:31N 63°27' E 010°24'4 4.1
2015-Feb-27 15:33N 63°28' E 010°15'9 9.2
2015-Feb-27 14:33N 63°23' E 009°59'4 4.2
2015-Feb-27 13:32N 63°19' E 009°53'0 0.0
2015-Feb-27 12:32N 63°19' E 009°53'0 0.0
2015-Feb-27 11:29N 63°19' E 009°53'0 0.0
2015-Feb-27 10:32N 63°19' E 009°53'0 0.0
2015-Feb-27 09:32N 63°19' E 009°53'0 0.0
2015-Feb-27 08:32N 63°19' E 009°53'0 0.0
2015-Feb-27 07:29N 63°19' E 009°53'0 0.0
2015-Feb-27 00:30N 63°19' E 009°53'5 5.8
2015-Feb-26 23:33N 63°24' E 009°59'10 9.9
2015-Feb-26 22:33N 63°33' E 009°51'7410.5
2015-Feb-26 15:28N 63°03' E 007°19'243 6.2
2015-Feb-25 00:33N 59°09' E 005°07'5 5.0
2015-Feb-24 23:34N 59°05' E 005°14'4 3.8
2015-Feb-24 22:33N 59°07' E 005°20'8 7.7
2015-Feb-24 21:33N 59°04' E 005°34'8 8.0
2015-Feb-24 20:33N 59°01' E 005°48'9 9.1
2015-Feb-24 19:34N 58°52' E 005°45'0 0.5
2015-Feb-24 18:31N 58°51' E 005°45'0 0.0
2015-Feb-24 17:31N 58°51' E 005°45'0 0.0
2015-Feb-24 16:31N 58°51' E 005°45'0 0.0
2015-Feb-24 15:31N 58°51' E 005°45'0 0.0
2015-Feb-24 14:33N 58°51' E 005°45'7 6.8
2015-Feb-24 13:33N 58°58' E 005°48'7 7.5
2015-Feb-24 12:33N 59°02' E 005°36'8 7.7
2015-Feb-24 11:33N 59°04' E 005°21'1010.2
2015-Feb-24 10:33N 58°54' E 005°22'50 9.9
2015-Feb-24 05:33N 58°05' E 005°33'  

Dump ship's entire track history